Carl, Iowa
Current Conditions -  °F | °C
As of 8:35 AM on Thursday 29 Jan 2015 (Local Time) from KCSQ Reporting Station
Overcast Overcast  
Wind Chill: -6°   Ceiling: 1100
Heat Index:   Visibility: 9mi
Dew Point:   Wind: 25mph
Humidity: 93%   Direction: 330°NNW
Pressure: 30.19"   Gusts: 32mph
Location:  41.0285°N, 94.7568°W
Report Text: KCSQ 291435Z AUTO 33022G28KT 9SM OVC011 01/M00 A3019 RMK AO2
Loading
Personal Weather Stations






























Interactive Weather Map New forecast layout! Learn more

10-Day Weather Forecast

Advertisements
Track Severe Weather on mobile